createdAt,value
2019-01-12T00:01:47.504Z,-0.40
2019-01-12T00:04:23.562Z,-0.30
2019-01-12T00:06:53.068Z,-0.30
2019-01-12T00:09:23.217Z,-0.30
2019-01-12T00:11:53.159Z,-0.20
2019-01-12T00:14:26.471Z,-0.30
2019-01-12T00:16:56.617Z,-0.20
2019-01-12T00:19:26.533Z,-0.20
2019-01-12T00:21:56.440Z,-0.20
2019-01-12T00:24:32.197Z,-0.20
2019-01-12T00:27:02.065Z,-0.20
2019-01-12T00:29:32.334Z,-0.20
2019-01-12T00:32:12.182Z,-0.10
2019-01-12T00:34:46.856Z,-0.10
2019-01-12T00:37:20.874Z,-0.10
2019-01-12T00:39:50.836Z,-0.10
2019-01-12T00:42:24.170Z,-0.10
2019-01-12T00:44:54.080Z,-0.10
2019-01-12T00:47:23.872Z,-0.10
2019-01-12T00:49:53.976Z,-0.10
2019-01-12T00:52:23.648Z,-0.10
2019-01-12T00:54:54.624Z,-0.10
2019-01-12T00:57:31.665Z,-0.10
2019-01-12T01:00:03.462Z,-0.10
2019-01-12T01:02:33.350Z,-0.20
2019-01-12T01:05:03.778Z,-0.20
2019-01-12T01:07:33.707Z,-0.20
2019-01-12T01:12:48.166Z,-0.10
2019-01-12T01:15:20.723Z,-0.10
2019-01-12T01:17:50.739Z,-0.10
2019-01-12T01:20:30.123Z,0.00
2019-01-12T01:22:59.832Z,0.00
2019-01-12T01:25:29.747Z,0.00
2019-01-12T01:27:59.606Z,0.00
2019-01-12T01:30:29.483Z,0.00
2019-01-12T01:32:59.185Z,0.00
2019-01-12T01:35:28.793Z,0.00
2019-01-12T01:37:58.657Z,0.00
2019-01-12T01:40:28.411Z,0.00
2019-01-12T01:42:57.950Z,0.00
2019-01-12T01:45:27.710Z,0.00
2019-01-12T01:47:57.415Z,0.00
2019-01-12T01:50:27.379Z,0.00
2019-01-12T01:52:57.355Z,0.00
2019-01-12T01:55:41.431Z,0.00
2019-01-12T01:58:02.668Z,0.00
2019-01-12T02:00:32.805Z,0.00
2019-01-12T02:03:02.783Z,0.00
2019-01-12T02:05:32.977Z,0.00
2019-01-12T02:08:02.760Z,0.00
2019-01-12T02:10:32.588Z,0.10
2019-01-12T02:13:08.240Z,0.10
2019-01-12T02:15:38.257Z,0.20
2019-01-12T02:18:10.658Z,0.10
2019-01-12T02:20:40.364Z,0.10
2019-01-12T02:23:10.606Z,0.20
2019-01-12T02:25:49.900Z,0.20
2019-01-12T02:28:20.188Z,0.20
2019-01-12T02:30:53.334Z,0.20
2019-01-12T02:33:23.429Z,0.20
2019-01-12T02:35:53.277Z,0.20
2019-01-12T02:38:23.694Z,0.20
2019-01-12T02:40:53.279Z,0.20
2019-01-12T02:43:23.830Z,0.20
2019-01-12T02:45:53.666Z,0.20
2019-01-12T02:48:23.762Z,0.20
2019-01-12T02:50:53.880Z,0.20
2019-01-12T02:53:23.451Z,0.30
2019-01-12T02:55:53.804Z,0.30
2019-01-12T02:58:24.072Z,0.30
2019-01-12T03:00:57.226Z,0.20
2019-01-12T03:03:27.215Z,0.20
2019-01-12T03:05:57.422Z,0.30
2019-01-12T03:08:27.281Z,0.30
2019-01-12T03:11:09.582Z,0.40
2019-01-12T03:13:48.032Z,0.40
2019-01-12T03:16:20.983Z,0.30
2019-01-12T03:18:53.560Z,0.30
2019-01-12T03:21:23.475Z,0.30
2019-01-12T03:23:53.778Z,0.40
2019-01-12T03:26:26.451Z,0.40
2019-01-12T03:29:00.083Z,0.40
2019-01-12T03:31:54.849Z,0.40
2019-01-12T03:34:30.733Z,0.40
2019-01-12T03:37:00.545Z,0.40
2019-01-12T03:39:52.579Z,0.30
2019-01-12T03:42:22.430Z,0.40
2019-01-12T03:44:52.238Z,0.40
2019-01-12T03:47:21.743Z,0.40
2019-01-12T03:53:06.201Z,0.40
2019-01-12T03:55:35.697Z,0.40
2019-01-12T03:58:06.458Z,0.50
2019-01-12T04:00:36.372Z,0.50
2019-01-12T04:03:06.187Z,0.50
2019-01-12T04:05:36.065Z,0.50
2019-01-12T04:08:05.621Z,0.50
2019-01-12T04:10:35.426Z,0.50
2019-01-12T04:13:11.582Z,0.50
2019-01-12T04:15:41.752Z,0.50
2019-01-12T04:18:11.868Z,0.60
2019-01-12T04:20:42.078Z,0.60
2019-01-12T04:23:12.162Z,0.60
2019-01-12T04:25:42.200Z,0.60
2019-01-12T04:28:12.670Z,0.60
2019-01-12T04:30:48.522Z,0.60
2019-01-12T04:33:18.948Z,0.70
2019-01-12T04:35:48.864Z,0.60
2019-01-12T04:41:17.980Z,0.70
2019-01-12T04:43:56.855Z,0.70
2019-01-12T04:46:33.512Z,0.60
2019-01-12T04:49:06.566Z,0.60
2019-01-12T04:51:36.685Z,0.60
2019-01-12T04:54:06.499Z,0.60
2019-01-12T04:56:40.509Z,0.60
2019-01-12T04:59:11.651Z,0.70
2019-01-12T05:01:43.301Z,0.70
2019-01-12T05:04:13.221Z,0.70
2019-01-12T05:06:58.394Z,0.70
2019-01-12T05:09:32.098Z,0.70
2019-01-12T05:12:02.729Z,0.70
2019-01-12T05:14:40.739Z,0.70
2019-01-12T05:17:14.129Z,0.70
2019-01-12T05:19:44.249Z,0.80
2019-01-12T05:25:48.875Z,0.80
2019-01-12T05:35:48.868Z,0.70
2019-01-12T05:38:27.786Z,0.70
2019-01-12T05:44:23.098Z,0.80
2019-01-12T05:46:52.904Z,0.80
2019-01-12T05:49:23.054Z,0.80
2019-01-12T05:51:53.111Z,0.80
2019-01-12T05:58:26.494Z,0.80
2019-01-12T06:00:59.787Z,0.90
2019-01-12T06:03:31.852Z,0.80
2019-01-12T06:06:05.147Z,0.90
2019-01-12T06:17:49.295Z,1.00
2019-01-12T06:20:22.446Z,1.00
2019-01-12T06:25:42.352Z,1.10
2019-01-12T06:28:22.473Z,1.10
2019-01-12T06:30:55.970Z,1.10
2019-01-12T06:33:29.879Z,1.10
2019-01-12T06:40:34.289Z,1.10
2019-01-12T06:43:40.044Z,1.20
2019-01-12T06:46:55.201Z,1.20
2019-01-12T06:49:29.345Z,1.20
2019-01-12T06:52:11.301Z,1.20
2019-01-12T06:55:10.911Z,1.20
2019-01-12T06:58:22.611Z,1.20
2019-01-12T07:01:15.151Z,1.20
2019-01-12T07:04:13.737Z,1.20
2019-01-12T07:06:52.419Z,1.20
2019-01-12T07:09:34.716Z,1.10
2019-01-12T07:12:25.501Z,1.20
2019-01-12T07:14:58.935Z,1.20
2019-01-12T07:17:38.094Z,1.20
2019-01-12T07:20:16.202Z,1.20
2019-01-12T07:22:49.362Z,1.20
2019-01-12T07:29:29.225Z,1.20
2019-01-12T07:36:05.018Z,1.30
2019-01-12T07:46:16.173Z,1.30
2019-01-12T07:48:49.028Z,1.40
2019-01-12T07:51:31.123Z,1.40
2019-01-12T07:54:23.805Z,1.50
2019-01-12T07:56:53.105Z,1.50
2019-01-12T07:59:22.328Z,1.50
2019-01-12T08:01:51.670Z,1.60
2019-01-12T08:04:21.008Z,1.60
2019-01-12T08:06:50.256Z,1.60
2019-01-12T08:09:19.585Z,1.60
2019-01-12T08:11:48.790Z,1.60
2019-01-12T08:14:18.306Z,1.60
2019-01-12T08:16:47.690Z,1.60
2019-01-12T08:19:16.958Z,1.60
2019-01-12T08:21:46.272Z,1.70
2019-01-12T08:24:15.576Z,1.70
2019-01-12T08:26:44.959Z,1.80
2019-01-12T08:29:14.271Z,1.80
2019-01-12T08:31:43.560Z,1.80
2019-01-12T08:34:12.902Z,1.90
2019-01-12T08:36:42.137Z,1.90
2019-01-12T08:39:11.311Z,2.00
2019-01-12T08:41:40.681Z,2.10
2019-01-12T08:44:09.981Z,2.10
2019-01-12T08:46:40.352Z,2.10
2019-01-12T08:49:09.670Z,2.10
2019-01-12T08:51:38.980Z,2.20
2019-01-12T08:54:08.238Z,2.30
2019-01-12T08:56:38.423Z,2.30
2019-01-12T08:59:08.053Z,2.60
2019-01-12T09:01:37.470Z,2.80
2019-01-12T09:04:06.869Z,2.50
2019-01-12T09:06:36.233Z,2.80
2019-01-12T09:09:08.373Z,3.00
2019-01-12T09:11:37.894Z,3.00
2019-01-12T09:14:07.321Z,2.80
2019-01-12T09:16:36.798Z,2.90
2019-01-12T09:19:06.078Z,3.00
2019-01-12T09:21:35.485Z,3.10
2019-01-12T09:24:04.862Z,3.10
2019-01-12T09:26:34.433Z,2.90
2019-01-12T09:29:03.919Z,2.90
2019-01-12T09:31:42.901Z,3.10
2019-01-12T09:34:16.642Z,3.10
2019-01-12T09:36:53.760Z,3.20
2019-01-12T09:39:26.954Z,3.20
2019-01-12T09:41:59.251Z,3.00
2019-01-12T09:44:32.648Z,3.20
2019-01-12T09:47:05.910Z,3.40
2019-01-12T09:52:46.321Z,3.20
2019-01-12T09:55:22.973Z,3.00
2019-01-12T09:57:56.086Z,3.20
2019-01-12T10:00:27.316Z,3.20
2019-01-12T10:03:00.724Z,3.10
2019-01-12T10:05:58.596Z,3.20
2019-01-12T10:08:34.132Z,3.00
2019-01-12T10:14:09.915Z,2.80
2019-01-12T10:17:00.857Z,2.80
2019-01-12T10:19:48.860Z,2.90
2019-01-12T10:22:21.555Z,2.90
2019-01-12T10:25:20.486Z,3.00
2019-01-12T10:28:02.740Z,2.90
2019-01-12T10:30:48.115Z,2.90
2019-01-12T10:33:21.103Z,3.00
2019-01-12T10:36:04.851Z,3.10
2019-01-12T10:39:10.801Z,3.10
2019-01-12T10:41:58.944Z,3.00
2019-01-12T10:44:46.320Z,3.00
2019-01-12T10:47:19.134Z,3.00
2019-01-12T10:49:56.233Z,2.80
2019-01-12T10:52:27.889Z,2.80
2019-01-12T10:55:12.344Z,2.90
2019-01-12T10:57:52.718Z,2.80
2019-01-12T11:00:33.056Z,3.00
2019-01-12T11:03:20.797Z,3.00
2019-01-12T11:06:01.156Z,3.10
2019-01-12T11:18:44.760Z,2.80
2019-01-12T11:21:42.731Z,2.90
2019-01-12T11:24:18.146Z,2.90
2019-01-12T11:27:04.051Z,3.10
2019-01-12T11:30:37.643Z,3.20
2019-01-12T11:33:36.334Z,2.90
2019-01-12T11:36:17.644Z,3.00
2019-01-12T11:38:59.744Z,3.00
2019-01-12T11:41:34.266Z,3.00
2019-01-12T11:44:10.429Z,3.10
2019-01-12T11:47:04.936Z,3.10
2019-01-12T11:52:27.040Z,3.20
2019-01-12T11:55:06.657Z,3.20
2019-01-12T11:58:00.487Z,3.10
2019-01-12T12:00:36.547Z,3.10
2019-01-12T12:03:13.014Z,3.20
2019-01-12T12:05:46.206Z,3.10
2019-01-12T12:08:19.265Z,3.00
2019-01-12T12:13:58.483Z,2.90
2019-01-12T12:16:30.409Z,3.00
2019-01-12T12:19:12.438Z,3.00
2019-01-12T12:21:50.278Z,2.90
2019-01-12T12:24:23.266Z,3.10
2019-01-12T12:27:03.096Z,3.00
2019-01-12T12:29:47.906Z,3.10
2019-01-12T12:53:20.832Z,3.90
2019-01-12T12:56:00.474Z,4.20
2019-01-12T13:02:18.128Z,4.10
2019-01-12T13:05:14.672Z,4.20
2019-01-12T13:07:56.308Z,4.10
2019-01-12T13:10:49.965Z,4.10
2019-01-12T13:13:30.978Z,4.20
2019-01-12T13:19:00.836Z,3.90
2019-01-12T13:31:39.523Z,3.50
2019-01-12T13:34:14.393Z,3.60
2019-01-12T13:37:09.870Z,3.70
2019-01-12T13:39:52.268Z,3.80
2019-01-12T13:42:33.220Z,3.70
2019-01-12T13:45:10.946Z,3.60
2019-01-12T13:48:07.865Z,3.70
2019-01-12T13:50:38.220Z,3.60
2019-01-12T13:57:06.703Z,3.80
2019-01-12T13:59:36.747Z,4.10
2019-01-12T14:02:30.723Z,4.20
2019-01-12T14:05:00.713Z,4.30
2019-01-12T14:07:31.374Z,4.10
2019-01-12T14:10:01.431Z,4.20
2019-01-12T14:12:38.750Z,4.30
2019-01-12T14:15:11.258Z,4.10
2019-01-12T14:17:54.760Z,4.30
2019-01-12T14:20:28.159Z,4.30
2019-01-12T14:22:58.071Z,4.20
2019-01-12T14:25:28.052Z,4.20
2019-01-12T14:27:58.068Z,4.10
2019-01-12T14:30:28.048Z,4.00
2019-01-12T14:32:57.861Z,4.10
2019-01-12T14:35:27.571Z,4.00
2019-01-12T14:37:57.456Z,4.00
2019-01-12T14:40:27.297Z,3.90
2019-01-12T14:42:57.724Z,3.90
2019-01-12T14:45:32.423Z,3.80
2019-01-12T14:48:05.540Z,3.70
2019-01-12T14:50:38.127Z,3.70
2019-01-12T14:53:08.514Z,3.80
2019-01-12T14:55:38.869Z,3.80
2019-01-12T14:58:08.957Z,3.70
2019-01-12T15:00:39.109Z,3.60
2019-01-12T15:03:18.188Z,3.50
2019-01-12T15:09:37.397Z,3.30
2019-01-12T15:12:19.324Z,3.40
2019-01-12T15:15:04.497Z,3.30
2019-01-12T15:17:39.226Z,3.10
2019-01-12T15:20:33.584Z,3.10
2019-01-12T15:28:43.907Z,3.00
2019-01-12T15:31:35.053Z,3.10
2019-01-12T15:34:14.048Z,3.00
2019-01-12T15:36:52.736Z,3.00
2019-01-12T15:39:26.165Z,2.90
2019-01-12T15:42:00.073Z,2.80
2019-01-12T15:44:51.287Z,2.90
2019-01-12T15:47:27.113Z,2.80
2019-01-12T15:49:57.628Z,2.70
2019-01-12T15:52:37.771Z,2.70
2019-01-12T15:55:15.114Z,2.70
2019-01-12T15:57:57.315Z,2.70
2019-01-12T16:00:39.083Z,2.70
2019-01-12T16:03:11.583Z,2.70
2019-01-12T16:05:49.063Z,2.70
2019-01-12T16:08:18.990Z,2.60
2019-01-12T16:10:49.387Z,2.60
2019-01-12T16:13:19.844Z,2.60
2019-01-12T16:15:50.611Z,2.60
2019-01-12T16:18:23.330Z,2.60
2019-01-12T16:20:53.449Z,2.60
2019-01-12T16:23:25.954Z,2.60
2019-01-12T16:25:58.735Z,2.50
2019-01-12T16:28:32.104Z,2.50
2019-01-12T16:31:02.558Z,2.50
2019-01-12T16:33:34.930Z,2.50
2019-01-12T16:36:05.532Z,2.50
2019-01-12T16:38:36.062Z,2.50
2019-01-12T16:41:06.488Z,2.50
2019-01-12T16:43:42.394Z,2.50
2019-01-12T16:46:15.997Z,2.50
2019-01-12T16:53:14.868Z,2.50
2019-01-12T16:56:55.977Z,2.50
2019-01-12T17:03:04.622Z,2.40
2019-01-12T17:05:37.102Z,2.40
2019-01-12T17:08:56.314Z,2.40
2019-01-12T17:12:06.460Z,2.30
2019-01-12T17:14:36.716Z,2.30
2019-01-12T17:17:09.529Z,2.30
2019-01-12T17:19:40.058Z,2.30
2019-01-12T17:22:10.322Z,2.30
2019-01-12T17:24:45.107Z,2.30
2019-01-12T17:27:15.331Z,2.30
2019-01-12T17:29:45.527Z,2.30
2019-01-12T17:32:15.775Z,2.40
2019-01-12T17:35:00.961Z,2.30
2019-01-12T17:37:30.934Z,2.30
2019-01-12T17:40:01.085Z,2.40
2019-01-12T17:42:31.135Z,2.40
2019-01-12T17:45:00.810Z,2.40
2019-01-12T17:47:30.931Z,2.40
2019-01-12T17:50:00.752Z,2.40
2019-01-12T17:52:31.346Z,2.40
2019-01-12T17:55:01.739Z,2.50
2019-01-12T17:57:31.041Z,2.50
2019-01-12T18:00:00.662Z,2.50
2019-01-12T18:02:39.287Z,2.50
2019-01-12T18:05:09.541Z,2.50
2019-01-12T18:07:39.159Z,2.60
2019-01-12T18:10:10.232Z,2.60
2019-01-12T18:12:39.702Z,2.60
2019-01-12T18:15:11.117Z,2.70
2019-01-12T18:17:40.722Z,2.70
2019-01-12T18:20:12.095Z,2.70
2019-01-12T18:22:42.285Z,2.70
2019-01-12T18:25:59.214Z,2.60
2019-01-12T18:27:44.414Z,2.70
2019-01-12T18:30:36.822Z,2.70
2019-01-12T18:33:08.615Z,2.80
2019-01-12T18:35:39.600Z,2.80
2019-01-12T18:38:09.238Z,2.80
2019-01-12T18:40:41.021Z,2.80
2019-01-12T18:43:10.231Z,2.80
2019-01-12T18:45:39.949Z,2.80
2019-01-12T18:48:09.846Z,2.90
2019-01-12T18:50:41.397Z,2.90
2019-01-12T18:53:11.244Z,2.90
2019-01-12T18:55:57.815Z,2.90
2019-01-12T18:58:27.377Z,2.90
2019-01-12T19:00:57.124Z,2.90
2019-01-12T19:03:26.372Z,2.90
2019-01-12T19:05:55.810Z,2.90
2019-01-12T19:08:25.056Z,2.90
2019-01-12T19:10:54.731Z,2.90
2019-01-12T19:13:24.454Z,2.80
2019-01-12T19:15:53.996Z,2.80
2019-01-12T19:18:23.162Z,2.80
2019-01-12T19:20:53.008Z,2.80
2019-01-12T19:23:22.678Z,2.80
2019-01-12T19:25:53.365Z,2.70
2019-01-12T19:28:24.845Z,2.70
2019-01-12T19:30:54.367Z,2.60
2019-01-12T19:33:23.655Z,2.60
2019-01-12T19:35:56.172Z,2.50
2019-01-12T19:38:25.753Z,2.50
2019-01-12T19:40:55.013Z,2.40
2019-01-12T19:43:24.352Z,2.40
2019-01-12T19:45:54.163Z,2.30
2019-01-12T19:48:23.464Z,2.20
2019-01-12T19:53:41.604Z,2.10
2019-01-12T19:56:10.814Z,2.10
2019-01-12T19:58:40.071Z,2.10
2019-01-12T20:01:09.453Z,2.10
2019-01-12T20:03:38.552Z,2.00
2019-01-12T20:06:08.227Z,2.00
2019-01-12T20:08:37.540Z,2.10
2019-01-12T20:11:06.763Z,2.10
2019-01-12T20:13:36.177Z,2.10
2019-01-12T20:16:08.352Z,2.10
2019-01-12T20:18:37.477Z,2.10
2019-01-12T20:21:06.986Z,2.20
2019-01-12T20:23:36.156Z,2.20
2019-01-12T20:26:09.468Z,2.20
2019-01-12T20:28:36.272Z,2.20
2019-01-12T20:31:45.584Z,2.20
2019-01-12T20:34:26.461Z,2.20
2019-01-12T20:37:29.528Z,2.20
2019-01-12T20:40:45.751Z,2.20
2019-01-12T20:44:09.535Z,2.20
2019-01-12T20:47:32.324Z,2.10
2019-01-12T20:50:19.836Z,2.00
2019-01-12T20:53:29.719Z,2.00
2019-01-12T20:56:27.624Z,2.00
2019-01-12T20:59:33.804Z,2.00
2019-01-12T21:02:43.931Z,2.00
2019-01-12T21:05:37.000Z,1.90
2019-01-12T21:08:40.624Z,1.90
2019-01-12T21:11:43.546Z,1.90
2019-01-12T21:14:51.401Z,1.90
2019-01-12T21:17:20.939Z,1.90
2019-01-12T21:19:50.077Z,1.80
2019-01-12T21:22:19.195Z,1.80
2019-01-12T21:24:48.311Z,1.80
2019-01-12T21:27:17.487Z,1.80
2019-01-12T21:29:46.597Z,1.80
2019-01-12T21:32:15.680Z,1.80
2019-01-12T21:34:44.860Z,1.80
2019-01-12T21:37:14.039Z,1.80
2019-01-12T21:39:43.140Z,1.80
2019-01-12T21:42:12.268Z,1.80
2019-01-12T21:44:41.377Z,1.90
2019-01-12T21:47:10.499Z,1.80
2019-01-12T21:49:39.691Z,1.90
2019-01-12T21:52:08.848Z,2.00
2019-01-12T21:54:38.020Z,2.00
2019-01-12T21:57:07.168Z,2.00
2019-01-12T21:59:42.350Z,2.00
2019-01-12T22:02:07.252Z,2.00
2019-01-12T22:04:36.580Z,2.00
2019-01-12T22:07:05.672Z,2.00
2019-01-12T22:09:34.816Z,2.00
2019-01-12T22:12:03.989Z,2.00
2019-01-12T22:14:33.109Z,2.00
2019-01-12T22:17:02.248Z,2.00
2019-01-12T22:19:31.352Z,1.90
2019-01-12T22:22:00.448Z,1.80
2019-01-12T22:24:29.582Z,1.80
2019-01-12T22:26:58.744Z,1.80
2019-01-12T22:29:27.930Z,1.80
2019-01-12T22:31:57.053Z,1.80
2019-01-12T22:34:26.216Z,1.80
2019-01-12T22:36:55.365Z,1.80
2019-01-12T22:39:24.475Z,1.80
2019-01-12T22:41:53.624Z,1.80
2019-01-12T22:44:22.732Z,1.80
2019-01-12T22:46:51.848Z,1.90
2019-01-12T22:49:20.963Z,1.90
2019-01-12T22:51:50.244Z,1.90
2019-01-12T22:54:19.461Z,1.90
2019-01-12T22:56:48.551Z,1.90
2019-01-12T22:59:17.685Z,2.00
2019-01-12T23:02:01.477Z,2.00
2019-01-12T23:04:31.163Z,2.10
2019-01-12T23:07:00.239Z,2.10
2019-01-12T23:09:29.375Z,2.10
2019-01-12T23:11:58.544Z,2.10
2019-01-12T23:14:27.647Z,2.10
2019-01-12T23:16:56.777Z,2.20
2019-01-12T23:19:25.948Z,2.20
2019-01-12T23:21:55.063Z,2.20
2019-01-12T23:24:24.191Z,2.20
2019-01-12T23:26:53.413Z,2.20
2019-01-12T23:29:22.592Z,2.20
2019-01-12T23:31:51.699Z,2.30
2019-01-12T23:34:20.774Z,2.20
2019-01-12T23:36:49.916Z,2.20
2019-01-12T23:39:18.998Z,2.20
2019-01-12T23:41:48.103Z,2.20
2019-01-12T23:44:17.199Z,2.20
2019-01-12T23:46:46.292Z,2.20
2019-01-12T23:49:15.414Z,2.20
2019-01-12T23:51:44.520Z,2.20
2019-01-12T23:54:13.641Z,2.20
2019-01-12T23:56:42.734Z,2.30
2019-01-12T23:59:11.836Z,2.20
